sensor_id;sensor_type;location;lat;lon;timestamp;pressure;altitude;pressure_sealevel;temperature;humidity
13594;BME280;6449;47.666;9.160;2023-04-27T00:01:18;97017.91;;;10.70;100.00
13594;BME280;6449;47.666;9.160;2023-04-27T00:06:11;97018.34;;;10.53;100.00
13594;BME280;6449;47.666;9.160;2023-04-27T00:11:05;97018.84;;;10.58;100.00
13594;BME280;6449;47.666;9.160;2023-04-27T00:16:00;97013.88;;;10.66;100.00
13594;BME280;6449;47.666;9.160;2023-04-27T00:20:56;97002.44;;;10.67;100.00
13594;BME280;6449;47.666;9.160;2023-04-27T00:25:50;97003.50;;;10.75;100.00
13594;BME280;6449;47.666;9.160;2023-04-27T00:30:43;96991.34;;;10.74;100.00
13594;BME280;6449;47.666;9.160;2023-04-27T00:35:37;97001.59;;;10.66;100.00
13594;BME280;6449;47.666;9.160;2023-04-27T00:40:32;96997.03;;;10.57;100.00
13594;BME280;6449;47.666;9.160;2023-04-27T00:45:25;97000.81;;;10.53;100.00
13594;BME280;6449;47.666;9.160;2023-04-27T00:50:27;97004.22;;;10.42;100.00
13594;BME280;6449;47.666;9.160;2023-04-27T00:55:21;96998.28;;;10.40;100.00
13594;BME280;6449;47.666;9.160;2023-04-27T01:00:16;97000.31;;;10.48;100.00
13594;BME280;6449;47.666;9.160;2023-04-27T01:05:09;96996.41;;;10.54;100.00
13594;BME280;6449;47.666;9.160;2023-04-27T01:10:05;97008.84;;;10.63;100.00
13594;BME280;6449;47.666;9.160;2023-04-27T01:14:58;97000.41;;;10.70;100.00
13594;BME280;6449;47.666;9.160;2023-04-27T01:19:53;97001.63;;;10.78;100.00
13594;BME280;6449;47.666;9.160;2023-04-27T01:24:49;97002.47;;;10.78;100.00
13594;BME280;6449;47.666;9.160;2023-04-27T01:29:42;96995.53;;;10.66;100.00
13594;BME280;6449;47.666;9.160;2023-04-27T01:34:36;96987.53;;;10.67;100.00
13594;BME280;6449;47.666;9.160;2023-04-27T01:39:29;96995.56;;;10.53;100.00
13594;BME280;6449;47.666;9.160;2023-04-27T01:44:24;96996.19;;;10.57;100.00
13594;BME280;6449;47.666;9.160;2023-04-27T01:49:17;96994.38;;;10.46;100.00
13594;BME280;6449;47.666;9.160;2023-04-27T01:54:11;96993.91;;;10.52;100.00
13594;BME280;6449;47.666;9.160;2023-04-27T01:59:05;96985.25;;;10.63;100.00
13594;BME280;6449;47.666;9.160;2023-04-27T02:03:59;96985.25;;;10.63;100.00
13594;BME280;6449;47.666;9.160;2023-04-27T02:08:55;96991.41;;;10.51;100.00
13594;BME280;6449;47.666;9.160;2023-04-27T02:13:48;96988.97;;;10.36;100.00
13594;BME280;6449;47.666;9.160;2023-04-27T02:18:42;97001.94;;;10.38;100.00
13594;BME280;6449;47.666;9.160;2023-04-27T02:23:37;96996.31;;;10.31;100.00
13594;BME280;6449;47.666;9.160;2023-04-27T02:28:30;96986.00;;;10.41;100.00
13594;BME280;6449;47.666;9.160;2023-04-27T02:33:24;96998.16;;;10.42;100.00
13594;BME280;6449;47.666;9.160;2023-04-27T02:38:18;97002.13;;;10.47;100.00
13594;BME280;6449;47.666;9.160;2023-04-27T02:43:13;96988.22;;;10.58;100.00
13594;BME280;6449;47.666;9.160;2023-04-27T02:48:06;96996.34;;;10.66;100.00
13594;BME280;6449;47.666;9.160;2023-04-27T02:52:59;97019.34;;;10.63;100.00
13594;BME280;6449;47.666;9.160;2023-04-27T02:57:53;97014.06;;;10.52;100.00
13594;BME280;6449;47.666;9.160;2023-04-27T03:02:48;97010.97;;;10.58;100.00
13594;BME280;6449;47.666;9.160;2023-04-27T03:07:42;97016.34;;;10.56;100.00
13594;BME280;6449;47.666;9.160;2023-04-27T03:12:35;97015.56;;;10.43;100.00
13594;BME280;6449;47.666;9.160;2023-04-27T03:17:29;97011.38;;;10.40;100.00
13594;BME280;6449;47.666;9.160;2023-04-27T03:22:24;97008.97;;;10.37;100.00
13594;BME280;6449;47.666;9.160;2023-04-27T03:27:17;97012.59;;;10.47;100.00
13594;BME280;6449;47.666;9.160;2023-04-27T03:32:11;97018.59;;;10.49;100.00
13594;BME280;6449;47.666;9.160;2023-04-27T03:37:04;97021.63;;;10.43;100.00
13594;BME280;6449;47.666;9.160;2023-04-27T03:41:59;97034.00;;;10.41;100.00
13594;BME280;6449;47.666;9.160;2023-04-27T03:46:54;97040.38;;;10.26;100.00
13594;BME280;6449;47.666;9.160;2023-04-27T03:51:47;97042.44;;;10.34;100.00
13594;BME280;6449;47.666;9.160;2023-04-27T03:56:41;97053.38;;;10.15;100.00
13594;BME280;6449;47.666;9.160;2023-04-27T04:01:36;97044.06;;;10.11;100.00
13594;BME280;6449;47.666;9.160;2023-04-27T04:06:31;97036.25;;;10.22;100.00
13594;BME280;6449;47.666;9.160;2023-04-27T04:11:25;97030.72;;;10.27;100.00
13594;BME280;6449;47.666;9.160;2023-04-27T04:16:18;97023.38;;;10.32;100.00
13594;BME280;6449;47.666;9.160;2023-04-27T04:21:13;97033.81;;;10.44;100.00
13594;BME280;6449;47.666;9.160;2023-04-27T04:26:07;97037.91;;;10.36;100.00
13594;BME280;6449;47.666;9.160;2023-04-27T04:31:01;97043.28;;;10.34;100.00
13594;BME280;6449;47.666;9.160;2023-04-27T04:35:56;97036.34;;;10.33;100.00
13594;BME280;6449;47.666;9.160;2023-04-27T04:40:51;97050.03;;;10.13;100.00
13594;BME280;6449;47.666;9.160;2023-04-27T04:45:44;97045.00;;;10.10;100.00
13594;BME280;6449;47.666;9.160;2023-04-27T04:50:38;97042.75;;;9.92;100.00
13594;BME280;6449;47.666;9.160;2023-04-27T04:55:33;97039.81;;;9.97;100.00
13594;BME280;6449;47.666;9.160;2023-04-27T05:00:28;97033.31;;;10.03;100.00
13594;BME280;6449;47.666;9.160;2023-04-27T05:05:21;97032.84;;;10.09;100.00
13594;BME280;6449;47.666;9.160;2023-04-27T05:10:15;97039.75;;;10.10;100.00
13594;BME280;6449;47.666;9.160;2023-04-27T05:15:09;97042.38;;;10.10;100.00
13594;BME280;6449;47.666;9.160;2023-04-27T05:20:06;97032.81;;;10.21;100.00
13594;BME280;6449;47.666;9.160;2023-04-27T05:25:00;97041.59;;;10.33;100.00
13594;BME280;6449;47.666;9.160;2023-04-27T05:29:54;97057.03;;;10.49;100.00
13594;BME280;6449;47.666;9.160;2023-04-27T05:34:48;97056.94;;;10.51;100.00
13594;BME280;6449;47.666;9.160;2023-04-27T05:39:43;97065.19;;;10.57;100.00
13594;BME280;6449;47.666;9.160;2023-04-27T05:44:36;97062.00;;;10.65;100.00
13594;BME280;6449;47.666;9.160;2023-04-27T05:49:30;97061.78;;;10.68;100.00
13594;BME280;6449;47.666;9.160;2023-04-27T05:54:23;97058.38;;;10.79;100.00
13594;BME280;6449;47.666;9.160;2023-04-27T05:59:18;97071.47;;;10.79;100.00
13594;BME280;6449;47.666;9.160;2023-04-27T06:04:12;97079.97;;;10.82;100.00
13594;BME280;6449;47.666;9.160;2023-04-27T06:09:06;97097.53;;;10.93;100.00
13594;BME280;6449;47.666;9.160;2023-04-27T06:14:00;97103.88;;;11.01;100.00
13594;BME280;6449;47.666;9.160;2023-04-27T06:18:54;97101.69;;;10.95;100.00
13594;BME280;6449;47.666;9.160;2023-04-27T06:23:48;97106.44;;;10.90;100.00
13594;BME280;6449;47.666;9.160;2023-04-27T06:28:41;97107.19;;;10.92;100.00
13594;BME280;6449;47.666;9.160;2023-04-27T06:33:35;97102.06;;;11.02;100.00
13594;BME280;6449;47.666;9.160;2023-04-27T06:38:30;97092.97;;;11.19;100.00
13594;BME280;6449;47.666;9.160;2023-04-27T06:43:23;97099.94;;;11.42;100.00
13594;BME280;6449;47.666;9.160;2023-04-27T06:48:17;97118.69;;;11.60;100.00
13594;BME280;6449;47.666;9.160;2023-04-27T06:53:10;97116.06;;;11.60;100.00
13594;BME280;6449;47.666;9.160;2023-04-27T06:58:05;97122.31;;;11.82;100.00
13594;BME280;6449;47.666;9.160;2023-04-27T07:02:59;97128.44;;;12.04;100.00
13594;BME280;6449;47.666;9.160;2023-04-27T07:07:53;97135.56;;;12.25;100.00
13594;BME280;6449;47.666;9.160;2023-04-27T07:12:49;97156.88;;;12.11;100.00
13594;BME280;6449;47.666;9.160;2023-04-27T07:17:44;97164.88;;;12.09;100.00
13594;BME280;6449;47.666;9.160;2023-04-27T07:22:38;97165.94;;;12.06;100.00
13594;BME280;6449;47.666;9.160;2023-04-27T07:27:32;97152.78;;;12.29;100.00
13594;BME280;6449;47.666;9.160;2023-04-27T07:32:26;97148.59;;;12.38;100.00
13594;BME280;6449;47.666;9.160;2023-04-27T07:37:21;97162.34;;;12.41;100.00
13594;BME280;6449;47.666;9.160;2023-04-27T07:42:15;97154.44;;;12.52;100.00
13594;BME280;6449;47.666;9.160;2023-04-27T07:47:09;97157.19;;;12.51;100.00
13594;BME280;6449;47.666;9.160;2023-04-27T07:52:04;97157.19;;;12.40;100.00
13594;BME280;6449;47.666;9.160;2023-04-27T07:56:59;97157.06;;;12.64;100.00
13594;BME280;6449;47.666;9.160;2023-04-27T08:01:53;97164.25;;;13.37;100.00
13594;BME280;6449;47.666;9.160;2023-04-27T08:07:02;97162.84;;;13.54;100.00
13594;BME280;6449;47.666;9.160;2023-04-27T08:11:57;97173.94;;;13.57;100.00
13594;BME280;6449;47.666;9.160;2023-04-27T08:16:52;97169.13;;;13.42;100.00
13594;BME280;6449;47.666;9.160;2023-04-27T08:21:45;97168.38;;;13.51;100.00
13594;BME280;6449;47.666;9.160;2023-04-27T08:26:40;97171.84;;;13.51;100.00
13594;BME280;6449;47.666;9.160;2023-04-27T08:31:33;97165.66;;;13.83;100.00
13594;BME280;6449;47.666;9.160;2023-04-27T08:36:28;97157.72;;;14.04;100.00
13594;BME280;6449;47.666;9.160;2023-04-27T08:41:23;97168.06;;;13.86;100.00
13594;BME280;6449;47.666;9.160;2023-04-27T08:46:18;97161.78;;;14.08;100.00
13594;BME280;6449;47.666;9.160;2023-04-27T08:51:14;97160.06;;;13.97;100.00
13594;BME280;6449;47.666;9.160;2023-04-27T08:56:09;97164.31;;;13.88;100.00
13594;BME280;6449;47.666;9.160;2023-04-27T09:01:05;97164.00;;;13.82;100.00
13594;BME280;6449;47.666;9.160;2023-04-27T09:05:59;97162.63;;;13.87;100.00
13594;BME280;6449;47.666;9.160;2023-04-27T09:10:57;97162.09;;;14.14;100.00
13594;BME280;6449;47.666;9.160;2023-04-27T09:15:51;97156.63;;;14.97;100.00
13594;BME280;6449;47.666;9.160;2023-04-27T09:20:46;97162.09;;;15.73;100.00
13594;BME280;6449;47.666;9.160;2023-04-27T09:25:40;97160.97;;;15.75;100.00
13594;BME280;6449;47.666;9.160;2023-04-27T09:30:34;97156.53;;;15.46;100.00
13594;BME280;6449;47.666;9.160;2023-04-27T09:35:32;97150.97;;;15.30;100.00
13594;BME280;6449;47.666;9.160;2023-04-27T09:40:27;97136.50;;;14.96;100.00
13594;BME280;6449;47.666;9.160;2023-04-27T09:45:23;97137.31;;;14.96;100.00
13594;BME280;6449;47.666;9.160;2023-04-27T09:50:17;97135.94;;;15.69;100.00
13594;BME280;6449;47.666;9.160;2023-04-27T09:55:16;97123.69;;;16.15;100.00
13594;BME280;6449;47.666;9.160;2023-04-27T10:00:29;97134.91;;;16.00;100.00
13594;BME280;6449;47.666;9.160;2023-04-27T10:05:44;97124.97;;;16.11;100.00
13594;BME280;6449;47.666;9.160;2023-04-27T10:10:47;97120.09;;;16.62;100.00
13594;BME280;6449;47.666;9.160;2023-04-27T10:15:40;97122.06;;;16.42;100.00
13594;BME280;6449;47.666;9.160;2023-04-27T10:20:36;97123.78;;;16.51;100.00
13594;BME280;6449;47.666;9.160;2023-04-27T10:25:37;97119.50;;;16.22;100.00
13594;BME280;6449;47.666;9.160;2023-04-27T10:30:34;97111.75;;;16.39;100.00
13594;BME280;6449;47.666;9.160;2023-04-27T10:35:34;97109.16;;;16.57;100.00
13594;BME280;6449;47.666;9.160;2023-04-27T10:40:32;97105.34;;;16.41;100.00
13594;BME280;6449;47.666;9.160;2023-04-27T10:45:26;97099.09;;;16.33;100.00
13594;BME280;6449;47.666;9.160;2023-04-27T10:50:24;97107.28;;;16.39;100.00
13594;BME280;6449;47.666;9.160;2023-04-27T10:55:20;97103.66;;;16.40;100.00
13594;BME280;6449;47.666;9.160;2023-04-27T11:00:20;97101.28;;;16.65;100.00
13594;BME280;6449;47.666;9.160;2023-04-27T11:05:17;97095.38;;;16.81;100.00
13594;BME280;6449;47.666;9.160;2023-04-27T11:10:16;97093.75;;;16.70;100.00
13594;BME280;6449;47.666;9.160;2023-04-27T11:15:11;97096.81;;;16.47;100.00
13594;BME280;6449;47.666;9.160;2023-04-27T11:20:06;97088.88;;;16.47;100.00
13594;BME280;6449;47.666;9.160;2023-04-27T11:25:01;97091.34;;;16.76;100.00
13594;BME280;6449;47.666;9.160;2023-04-27T11:29:56;97083.88;;;16.90;100.00
13594;BME280;6449;47.666;9.160;2023-04-27T11:34:51;97073.91;;;16.84;100.00
13594;BME280;6449;47.666;9.160;2023-04-27T11:39:47;97074.03;;;17.00;100.00
13594;BME280;6449;47.666;9.160;2023-04-27T11:44:41;97074.88;;;17.00;96.01
13594;BME280;6449;47.666;9.160;2023-04-27T11:49:35;97085.22;;;17.29;100.00
13594;BME280;6449;47.666;9.160;2023-04-27T11:54:29;97079.53;;;17.24;100.00
13594;BME280;6449;47.666;9.160;2023-04-27T11:59:23;97070.47;;;17.27;96.98
13594;BME280;6449;47.666;9.160;2023-04-27T12:04:18;97074.22;;;17.24;94.29
13594;BME280;6449;47.666;9.160;2023-04-27T12:09:15;97077.53;;;17.00;97.36
13594;BME280;6449;47.666;9.160;2023-04-27T12:14:08;97062.63;;;16.99;95.61
13594;BME280;6449;47.666;9.160;2023-04-27T12:19:02;97068.88;;;16.98;93.91
13594;BME280;6449;47.666;9.160;2023-04-27T12:23:56;97058.81;;;17.02;95.24
13594;BME280;6449;47.666;9.160;2023-04-27T12:28:50;97065.84;;;16.75;98.74
13594;BME280;6449;47.666;9.160;2023-04-27T12:33:44;97055.06;;;16.59;95.11
13594;BME280;6449;47.666;9.160;2023-04-27T12:39:14;97060.75;;;16.46;96.30
13594;BME280;6449;47.666;9.160;2023-04-27T12:44:32;97056.94;;;16.76;100.00
13594;BME280;6449;47.666;9.160;2023-04-27T12:49:25;97036.94;;;16.82;91.51
13594;BME280;6449;47.666;9.160;2023-04-27T12:59:59;97053.19;;;16.69;99.85
13594;BME280;6449;47.666;9.160;2023-04-27T13:04:53;97028.31;;;16.62;88.03
13594;BME280;6449;47.666;9.160;2023-04-27T13:09:48;97047.31;;;16.75;98.64
13594;BME280;6449;47.666;9.160;2023-04-27T13:15:00;97034.25;;;16.74;94.92
13594;BME280;6449;47.666;9.160;2023-04-27T13:19:55;97038.75;;;16.64;97.55
13594;BME280;6449;47.666;9.160;2023-04-27T13:24:50;97032.38;;;16.39;98.02
13594;BME280;6449;47.666;9.160;2023-04-27T13:29:44;97034.28;;;16.46;100.00
13594;BME280;6449;47.666;9.160;2023-04-27T13:34:40;97018.69;;;16.43;94.15
13594;BME280;6449;47.666;9.160;2023-04-27T13:39:35;97020.22;;;16.46;90.67
13594;BME280;6449;47.666;9.160;2023-04-27T13:44:29;97016.59;;;16.47;98.30
13594;BME280;6449;47.666;9.160;2023-04-27T13:49:23;97016.34;;;16.58;88.86
13594;BME280;6449;47.666;9.160;2023-04-27T13:54:16;97008.88;;;16.54;88.93
13594;BME280;6449;47.666;9.160;2023-04-27T13:59:11;97010.16;;;16.67;89.74
13594;BME280;6449;47.666;9.160;2023-04-27T14:04:07;97014.47;;;16.68;87.42
13594;BME280;6449;47.666;9.160;2023-04-27T14:09:01;97002.63;;;16.72;85.28
13594;BME280;6449;47.666;9.160;2023-04-27T14:13:55;97011.25;;;16.74;89.50
13594;BME280;6449;47.666;9.160;2023-04-27T14:18:50;97006.38;;;16.70;83.14
13594;BME280;6449;47.666;9.160;2023-04-27T14:23:43;96998.50;;;16.60;83.26
13594;BME280;6449;47.666;9.160;2023-04-27T14:28:37;97000.53;;;16.48;88.50
13594;BME280;6449;47.666;9.160;2023-04-27T14:33:31;96993.22;;;16.60;90.22
13594;BME280;6449;47.666;9.160;2023-04-27T14:38:25;96990.47;;;16.70;87.99
13594;BME280;6449;47.666;9.160;2023-04-27T14:43:19;96989.00;;;16.67;88.14
13594;BME280;6449;47.666;9.160;2023-04-27T14:48:12;96989.41;;;16.72;90.69
13594;BME280;6449;47.666;9.160;2023-04-27T14:53:06;96982.31;;;16.63;92.99
13594;BME280;6449;47.666;9.160;2023-04-27T14:58:01;96967.22;;;16.73;82.96
13594;BME280;6449;47.666;9.160;2023-04-27T15:02:54;96977.13;;;16.71;85.31
13594;BME280;6449;47.666;9.160;2023-04-27T15:07:48;96975.59;;;16.69;87.84
13594;BME280;6449;47.666;9.160;2023-04-27T15:12:52;96966.13;;;16.66;85.85
13594;BME280;6449;47.666;9.160;2023-04-27T15:17:47;96965.00;;;16.69;88.22
13594;BME280;6449;47.666;9.160;2023-04-27T15:22:40;96961.97;;;16.82;85.87
13594;BME280;6449;47.666;9.160;2023-04-27T15:27:34;96962.44;;;16.95;83.69
13594;BME280;6449;47.666;9.160;2023-04-27T15:32:27;96968.94;;;16.83;88.64
13594;BME280;6449;47.666;9.160;2023-04-27T15:37:22;96969.47;;;16.86;83.21
13594;BME280;6449;47.666;9.160;2023-04-27T15:42:16;96965.91;;;16.77;83.01
13594;BME280;6449;47.666;9.160;2023-04-27T15:47:09;96971.06;;;16.79;88.89
13594;BME280;6449;47.666;9.160;2023-04-27T15:52:06;96959.41;;;16.72;87.67
13594;BME280;6449;47.666;9.160;2023-04-27T15:57:00;96958.19;;;16.66;91.17
13594;BME280;6449;47.666;9.160;2023-04-27T16:01:55;96952.88;;;16.66;90.24
13594;BME280;6449;47.666;9.160;2023-04-27T16:06:49;96936.03;;;16.67;86.44
13594;BME280;6449;47.666;9.160;2023-04-27T16:11:42;96935.22;;;16.85;87.45
13594;BME280;6449;47.666;9.160;2023-04-27T16:16:37;96923.75;;;16.66;85.03
13594;BME280;6449;47.666;9.160;2023-04-27T16:21:30;96920.25;;;16.75;84.00
13594;BME280;6449;47.666;9.160;2023-04-27T16:26:24;96913.19;;;16.66;86.81
13594;BME280;6449;47.666;9.160;2023-04-27T16:31:19;96921.44;;;16.63;89.51
13594;BME280;6449;47.666;9.160;2023-04-27T16:36:14;96926.66;;;16.55;90.60
13594;BME280;6449;47.666;9.160;2023-04-27T16:41:07;96922.81;;;16.49;85.69
13594;BME280;6449;47.666;9.160;2023-04-27T16:46:01;96926.72;;;16.45;87.68
13594;BME280;6449;47.666;9.160;2023-04-27T16:50:54;96930.25;;;16.46;92.93
13594;BME280;6449;47.666;9.160;2023-04-27T16:55:53;96931.06;;;16.46;90.15
13594;BME280;6449;47.666;9.160;2023-04-27T17:00:46;96932.81;;;16.38;93.15
13594;BME280;6449;47.666;9.160;2023-04-27T17:05:40;96928.78;;;16.34;94.39
13594;BME280;6449;47.666;9.160;2023-04-27T17:10:33;96931.06;;;16.46;89.87
13594;BME280;6449;47.666;9.160;2023-04-27T17:15:29;96927.78;;;16.35;86.06
13594;BME280;6449;47.666;9.160;2023-04-27T17:20:23;96929.56;;;16.26;94.80
13594;BME280;6449;47.666;9.160;2023-04-27T17:25:16;96931.28;;;16.17;93.70
13594;BME280;6449;47.666;9.160;2023-04-27T17:30:13;96935.28;;;16.21;91.89
13594;BME280;6449;47.666;9.160;2023-04-27T17:35:09;96937.84;;;16.13;90.78
13594;BME280;6449;47.666;9.160;2023-04-27T17:40:03;96936.84;;;15.96;93.51
13594;BME280;6449;47.666;9.160;2023-04-27T17:44:58;96938.13;;;15.92;95.44
13594;BME280;6449;47.666;9.160;2023-04-27T17:49:52;96932.75;;;15.84;92.53
13594;BME280;6449;47.666;9.160;2023-04-27T17:54:47;96944.25;;;15.65;97.74
13594;BME280;6449;47.666;9.160;2023-04-27T17:59:40;96937.91;;;15.49;100.00
13594;BME280;6449;47.666;9.160;2023-04-27T18:04:33;96953.25;;;15.35;100.00
13594;BME280;6449;47.666;9.160;2023-04-27T18:09:27;96955.53;;;15.20;100.00
13594;BME280;6449;47.666;9.160;2023-04-27T18:14:25;96959.84;;;15.12;100.00
13594;BME280;6449;47.666;9.160;2023-04-27T18:19:18;96955.97;;;15.06;100.00
13594;BME280;6449;47.666;9.160;2023-04-27T18:24:12;96972.69;;;14.97;100.00
13594;BME280;6449;47.666;9.160;2023-04-27T18:29:05;96979.94;;;14.76;100.00
13594;BME280;6449;47.666;9.160;2023-04-27T18:34:03;96978.13;;;14.66;100.00
13594;BME280;6449;47.666;9.160;2023-04-27T18:38:57;96987.28;;;14.53;100.00
13594;BME280;6449;47.666;9.160;2023-04-27T18:43:51;96994.34;;;14.42;100.00
13594;BME280;6449;47.666;9.160;2023-04-27T18:48:44;96990.75;;;14.34;100.00
13594;BME280;6449;47.666;9.160;2023-04-27T18:53:39;96988.66;;;14.28;100.00
13594;BME280;6449;47.666;9.160;2023-04-27T18:58:32;96984.47;;;14.25;100.00
13594;BME280;6449;47.666;9.160;2023-04-27T19:03:26;96987.94;;;14.26;100.00
13594;BME280;6449;47.666;9.160;2023-04-27T19:08:19;96990.16;;;14.21;100.00
13594;BME280;6449;47.666;9.160;2023-04-27T19:13:14;96991.81;;;14.12;100.00
13594;BME280;6449;47.666;9.160;2023-04-27T19:18:07;96981.69;;;14.07;100.00
13594;BME280;6449;47.666;9.160;2023-04-27T19:23:03;96990.09;;;13.92;100.00
13594;BME280;6449;47.666;9.160;2023-04-27T19:27:56;96983.25;;;13.70;100.00
13594;BME280;6449;47.666;9.160;2023-04-27T19:32:51;96990.13;;;13.61;100.00
13594;BME280;6449;47.666;9.160;2023-04-27T19:37:45;96988.22;;;13.73;100.00
13594;BME280;6449;47.666;9.160;2023-04-27T19:42:41;96986.03;;;13.78;100.00
13594;BME280;6449;47.666;9.160;2023-04-27T19:47:34;96979.66;;;13.90;100.00
13594;BME280;6449;47.666;9.160;2023-04-27T19:52:29;96976.53;;;13.96;100.00
13594;BME280;6449;47.666;9.160;2023-04-27T19:57:23;96985.25;;;13.97;100.00
13594;BME280;6449;47.666;9.160;2023-04-27T20:02:17;96991.63;;;13.94;100.00
13594;BME280;6449;47.666;9.160;2023-04-27T20:07:10;96983.84;;;13.93;100.00
13594;BME280;6449;47.666;9.160;2023-04-27T20:12:06;96982.75;;;13.95;100.00
13594;BME280;6449;47.666;9.160;2023-04-27T20:17:15;96981.91;;;13.95;100.00
13594;BME280;6449;47.666;9.160;2023-04-27T20:22:08;96977.03;;;13.90;100.00
13594;BME280;6449;47.666;9.160;2023-04-27T20:27:03;96982.16;;;13.82;100.00
13594;BME280;6449;47.666;9.160;2023-04-27T20:31:58;96978.56;;;13.83;100.00
13594;BME280;6449;47.666;9.160;2023-04-27T20:36:52;96974.94;;;13.84;100.00
13594;BME280;6449;47.666;9.160;2023-04-27T20:41:46;96970.06;;;13.70;100.00
13594;BME280;6449;47.666;9.160;2023-04-27T20:46:40;96958.75;;;13.48;100.00
13594;BME280;6449;47.666;9.160;2023-04-27T20:51:37;96963.69;;;13.42;100.00
13594;BME280;6449;47.666;9.160;2023-04-27T20:56:30;96952.53;;;13.49;100.00
13594;BME280;6449;47.666;9.160;2023-04-27T21:01:24;96954.31;;;13.49;100.00
13594;BME280;6449;47.666;9.160;2023-04-27T21:06:18;96941.81;;;13.41;100.00
13594;BME280;6449;47.666;9.160;2023-04-27T21:11:12;96943.75;;;13.39;100.00
13594;BME280;6449;47.666;9.160;2023-04-27T21:16:09;96947.31;;;13.07;100.00
13594;BME280;6449;47.666;9.160;2023-04-27T21:21:02;96931.97;;;13.13;100.00
13594;BME280;6449;47.666;9.160;2023-04-27T21:25:56;96926.56;;;13.14;100.00
13594;BME280;6449;47.666;9.160;2023-04-27T21:30:51;96935.81;;;13.08;100.00
13594;BME280;6449;47.666;9.160;2023-04-27T21:35:44;96937.22;;;13.13;100.00
13594;BME280;6449;47.666;9.160;2023-04-27T21:40:38;96929.91;;;13.16;100.00
13594;BME280;6449;47.666;9.160;2023-04-27T21:45:31;96932.22;;;13.09;100.00
13594;BME280;6449;47.666;9.160;2023-04-27T21:50:26;96943.06;;;13.16;100.00
13594;BME280;6449;47.666;9.160;2023-04-27T21:55:19;96936.69;;;13.19;100.00
13594;BME280;6449;47.666;9.160;2023-04-27T22:00:14;96933.63;;;13.14;100.00
13594;BME280;6449;47.666;9.160;2023-04-27T22:05:09;96939.31;;;13.19;100.00
13594;BME280;6449;47.666;9.160;2023-04-27T22:10:05;96932.88;;;13.23;100.00
13594;BME280;6449;47.666;9.160;2023-04-27T22:14:59;96934.59;;;13.33;100.00
13594;BME280;6449;47.666;9.160;2023-04-27T22:19:52;96937.78;;;13.37;100.00
13594;BME280;6449;47.666;9.160;2023-04-27T22:24:45;96941.47;;;13.25;100.00
13594;BME280;6449;47.666;9.160;2023-04-27T22:29:40;96945.78;;;13.05;100.00
13594;BME280;6449;47.666;9.160;2023-04-27T22:34:34;96941.59;;;13.02;100.00
13594;BME280;6449;47.666;9.160;2023-04-27T22:39:29;96935.19;;;12.95;100.00
13594;BME280;6449;47.666;9.160;2023-04-27T22:44:23;96919.34;;;12.85;100.00
13594;BME280;6449;47.666;9.160;2023-04-27T22:49:18;96908.66;;;13.08;100.00
13594;BME280;6449;47.666;9.160;2023-04-27T22:54:11;96916.09;;;13.24;100.00
13594;BME280;6449;47.666;9.160;2023-04-27T22:59:05;96926.91;;;13.00;100.00
13594;BME280;6449;47.666;9.160;2023-04-27T23:03:59;96912.75;;;12.91;100.00
13594;BME280;6449;47.666;9.160;2023-04-27T23:08:54;96902.56;;;13.07;100.00
13594;BME280;6449;47.666;9.160;2023-04-27T23:13:48;96907.69;;;13.09;100.00
13594;BME280;6449;47.666;9.160;2023-04-27T23:18:41;96897.84;;;13.01;100.00
13594;BME280;6449;47.666;9.160;2023-04-27T23:23:35;96906.81;;;12.99;100.00
13594;BME280;6449;47.666;9.160;2023-04-27T23:28:30;96904.41;;;12.86;100.00
13594;BME280;6449;47.666;9.160;2023-04-27T23:33:23;96911.47;;;12.65;100.00
13594;BME280;6449;47.666;9.160;2023-04-27T23:38:16;96899.22;;;12.75;100.00
13594;BME280;6449;47.666;9.160;2023-04-27T23:43:10;96898.31;;;12.85;100.00
13594;BME280;6449;47.666;9.160;2023-04-27T23:48:05;96883.09;;;12.89;100.00
13594;BME280;6449;47.666;9.160;2023-04-27T23:52:59;96877.50;;;12.82;100.00
13594;BME280;6449;47.666;9.160;2023-04-27T23:57:52;96876.69;;;12.82;100.00
